Lola, Kentucky
Current Conditions -  °F | °C
As of 6:55 PM on Wednesday 22 Oct 2014 (Local Time) from K5M9 Reporting Station
Clear Clear  
Wind Chill: 51°   Ceiling: Unl
Heat Index: 51°   Visibility: 10mi
Dew Point: 40°   Wind: 5mph
Humidity: 68%   Direction: 20°NNE
Pressure: 30.22"   Gusts: NA
Location:  37.241°N, 88.2785°W
Report Text: K5M9 222355Z AUTO 02004KT 10SM CLR 10/05 A3022 RMK AO2 T01030046 10161 20103
Loading
Personal Weather Stations






























Interactive Weather Map
Tropical Storm Tracking
New forecast layout! Learn more

10-Day Weather Forecast

Advertisements
Track Severe Weather on mobile